sensor_id;sensor_type;location;lat;lon;timestamp;temperature;humidity
6174;DHT22;3120;48.796;9.796;2022-09-25T00:01:01;13.30;99.90
6174;DHT22;3120;48.796;9.796;2022-09-25T00:03:28;14.00;99.90
6174;DHT22;3120;48.796;9.796;2022-09-25T00:06:06;12.10;99.90
6174;DHT22;3120;48.796;9.796;2022-09-25T00:08:33;12.10;99.90
6174;DHT22;3120;48.796;9.796;2022-09-25T00:10:59;12.20;99.90
6174;DHT22;3120;48.796;9.796;2022-09-25T00:13:25;12.40;99.90
6174;DHT22;3120;48.796;9.796;2022-09-25T00:15:53;14.10;99.90
6174;DHT22;3120;48.796;9.796;2022-09-25T00:18:20;12.00;99.90
6174;DHT22;3120;48.796;9.796;2022-09-25T00:21:06;12.00;99.90
6174;DHT22;3120;48.796;9.796;2022-09-25T00:23:32;14.50;99.90
6174;DHT22;3120;48.796;9.796;2022-09-25T00:25:59;12.00;99.90
6174;DHT22;3120;48.796;9.796;2022-09-25T00:28:25;13.20;99.90
6174;DHT22;3120;48.796;9.796;2022-09-25T00:30:54;12.00;99.90
6174;DHT22;3120;48.796;9.796;2022-09-25T00:33:20;12.00;99.90
6174;DHT22;3120;48.796;9.796;2022-09-25T00:35:46;12.90;99.90
6174;DHT22;3120;48.796;9.796;2022-09-25T00:38:11;11.70;99.90
6174;DHT22;3120;48.796;9.796;2022-09-25T00:40:37;13.00;99.90
6174;DHT22;3120;48.796;9.796;2022-09-25T00:43:02;11.70;99.90
6174;DHT22;3120;48.796;9.796;2022-09-25T00:45:28;11.70;99.90
6174;DHT22;3120;48.796;9.796;2022-09-25T00:48:00;11.60;99.90
6174;DHT22;3120;48.796;9.796;2022-09-25T00:50:38;11.60;99.90
6174;DHT22;3120;48.796;9.796;2022-09-25T00:53:16;11.50;99.90
6174;DHT22;3120;48.796;9.796;2022-09-25T00:55:44;11.50;99.90
6174;DHT22;3120;48.796;9.796;2022-09-25T00:58:13;11.50;99.90
6174;DHT22;3120;48.796;9.796;2022-09-25T01:00:41;11.50;99.90
6174;DHT22;3120;48.796;9.796;2022-09-25T01:03:07;11.40;99.90
6174;DHT22;3120;48.796;9.796;2022-09-25T01:05:36;11.50;99.90
6174;DHT22;3120;48.796;9.796;2022-09-25T01:08:05;11.50;99.90
6174;DHT22;3120;48.796;9.796;2022-09-25T01:10:31;11.50;99.90
6174;DHT22;3120;48.796;9.796;2022-09-25T01:12:59;11.50;99.90
6174;DHT22;3120;48.796;9.796;2022-09-25T01:21:43;11.50;99.90
6174;DHT22;3120;48.796;9.796;2022-09-25T01:27:32;11.50;99.90
6174;DHT22;3120;48.796;9.796;2022-09-25T01:30:05;11.60;99.90
6174;DHT22;3120;48.796;9.796;2022-09-25T01:32:52;11.60;99.90
6174;DHT22;3120;48.796;9.796;2022-09-25T01:38:15;11.60;99.90
6174;DHT22;3120;48.796;9.796;2022-09-25T01:41:07;11.60;99.90
6174;DHT22;3120;48.796;9.796;2022-09-25T01:43:42;11.60;99.90
6174;DHT22;3120;48.796;9.796;2022-09-25T01:46:20;11.60;99.90
6174;DHT22;3120;48.796;9.796;2022-09-25T01:48:51;11.70;99.90
6174;DHT22;3120;48.796;9.796;2022-09-25T01:51:24;11.70;99.90
6174;DHT22;3120;48.796;9.796;2022-09-25T01:53:53;12.30;99.90
6174;DHT22;3120;48.796;9.796;2022-09-25T01:56:24;11.60;99.90
6174;DHT22;3120;48.796;9.796;2022-09-25T01:59:12;11.60;99.90
6174;DHT22;3120;48.796;9.796;2022-09-25T02:01:41;11.60;99.90
6174;DHT22;3120;48.796;9.796;2022-09-25T02:04:23;11.60;99.90
6174;DHT22;3120;48.796;9.796;2022-09-25T02:06:50;11.70;99.90
6174;DHT22;3120;48.796;9.796;2022-09-25T02:09:28;11.70;99.90
6174;DHT22;3120;48.796;9.796;2022-09-25T02:12:01;11.70;99.90
6174;DHT22;3120;48.796;9.796;2022-09-25T02:14:36;11.70;99.90
6174;DHT22;3120;48.796;9.796;2022-09-25T02:17:06;11.70;99.90
6174;DHT22;3120;48.796;9.796;2022-09-25T02:19:32;11.70;99.90
6174;DHT22;3120;48.796;9.796;2022-09-25T02:22:20;12.70;99.90
6174;DHT22;3120;48.796;9.796;2022-09-25T02:27:14;13.40;99.90
6174;DHT22;3120;48.796;9.796;2022-09-25T02:29:40;11.70;99.90
6174;DHT22;3120;48.796;9.796;2022-09-25T02:32:21;12.30;99.90
6174;DHT22;3120;48.796;9.796;2022-09-25T02:34:51;11.70;99.90
6174;DHT22;3120;48.796;9.796;2022-09-25T02:37:17;12.50;99.90
6174;DHT22;3120;48.796;9.796;2022-09-25T02:39:46;11.70;99.90
6174;DHT22;3120;48.796;9.796;2022-09-25T02:47:43;11.70;99.90
6174;DHT22;3120;48.796;9.796;2022-09-25T02:55:45;11.60;99.90
6174;DHT22;3120;48.796;9.796;2022-09-25T02:58:44;11.70;99.90
6174;DHT22;3120;48.796;9.796;2022-09-25T03:01:16;11.70;99.90
6174;DHT22;3120;48.796;9.796;2022-09-25T03:03:44;11.70;99.90
6174;DHT22;3120;48.796;9.796;2022-09-25T03:06:10;11.70;99.90
6174;DHT22;3120;48.796;9.796;2022-09-25T03:08:39;12.70;99.90
6174;DHT22;3120;48.796;9.796;2022-09-25T03:11:12;11.60;99.90
6174;DHT22;3120;48.796;9.796;2022-09-25T03:13:41;11.60;99.90
6174;DHT22;3120;48.796;9.796;2022-09-25T03:18:38;11.50;99.90
6174;DHT22;3120;48.796;9.796;2022-09-25T03:21:03;13.40;99.90
6174;DHT22;3120;48.796;9.796;2022-09-25T03:23:29;13.20;99.90
6174;DHT22;3120;48.796;9.796;2022-09-25T03:25:56;11.50;99.90
6174;DHT22;3120;48.796;9.796;2022-09-25T03:28:22;11.50;99.90
6174;DHT22;3120;48.796;9.796;2022-09-25T03:31:06;11.40;99.90
6174;DHT22;3120;48.796;9.796;2022-09-25T03:33:37;11.40;99.90
6174;DHT22;3120;48.796;9.796;2022-09-25T03:38:35;11.40;99.90
6174;DHT22;3120;48.796;9.796;2022-09-25T03:41:02;11.50;99.90
6174;DHT22;3120;48.796;9.796;2022-09-25T03:43:28;11.50;99.90
6174;DHT22;3120;48.796;9.796;2022-09-25T03:45:56;12.80;99.90
6174;DHT22;3120;48.796;9.796;2022-09-25T03:48:22;11.50;99.90
6174;DHT22;3120;48.796;9.796;2022-09-25T03:50:48;11.50;99.90
6174;DHT22;3120;48.796;9.796;2022-09-25T03:53:15;12.30;99.90
6174;DHT22;3120;48.796;9.796;2022-09-25T03:55:43;13.90;99.90
6174;DHT22;3120;48.796;9.796;2022-09-25T03:58:13;11.60;99.90
6174;DHT22;3120;48.796;9.796;2022-09-25T04:00:39;12.80;99.90
6174;DHT22;3120;48.796;9.796;2022-09-25T04:03:05;11.60;99.90
6174;DHT22;3120;48.796;9.796;2022-09-25T04:05:30;11.60;99.90
6174;DHT22;3120;48.796;9.796;2022-09-25T04:07:56;11.60;99.90
6174;DHT22;3120;48.796;9.796;2022-09-25T04:10:22;11.60;99.90
6174;DHT22;3120;48.796;9.796;2022-09-25T04:12:47;11.60;99.90
6174;DHT22;3120;48.796;9.796;2022-09-25T04:15:14;11.70;99.90
6174;DHT22;3120;48.796;9.796;2022-09-25T04:17:41;11.60;99.90
6174;DHT22;3120;48.796;9.796;2022-09-25T04:20:07;13.50;99.90
6174;DHT22;3120;48.796;9.796;2022-09-25T04:22:34;11.60;99.90
6174;DHT22;3120;48.796;9.796;2022-09-25T04:24:59;11.90;99.90
6174;DHT22;3120;48.796;9.796;2022-09-25T04:27:25;11.60;99.90
6174;DHT22;3120;48.796;9.796;2022-09-25T04:29:51;11.60;99.90
6174;DHT22;3120;48.796;9.796;2022-09-25T04:32:16;12.50;99.90
6174;DHT22;3120;48.796;9.796;2022-09-25T04:35:01;11.60;99.90
6174;DHT22;3120;48.796;9.796;2022-09-25T04:37:27;11.70;99.90
6174;DHT22;3120;48.796;9.796;2022-09-25T04:39:56;11.70;99.90
6174;DHT22;3120;48.796;9.796;2022-09-25T04:42:22;11.70;99.90
6174;DHT22;3120;48.796;9.796;2022-09-25T04:44:52;11.70;99.90
6174;DHT22;3120;48.796;9.796;2022-09-25T04:47:23;12.80;99.90
6174;DHT22;3120;48.796;9.796;2022-09-25T04:49:50;12.60;99.90
6174;DHT22;3120;48.796;9.796;2022-09-25T04:52:16;11.70;99.90
6174;DHT22;3120;48.796;9.796;2022-09-25T04:54:43;12.70;99.90
6174;DHT22;3120;48.796;9.796;2022-09-25T04:57:12;13.40;99.90
6174;DHT22;3120;48.796;9.796;2022-09-25T04:59:38;13.10;99.90
6174;DHT22;3120;48.796;9.796;2022-09-25T05:02:04;11.70;99.90
6174;DHT22;3120;48.796;9.796;2022-09-25T05:04:29;11.70;99.90
6174;DHT22;3120;48.796;9.796;2022-09-25T05:06:55;12.30;99.90
6174;DHT22;3120;48.796;9.796;2022-09-25T05:09:20;11.70;99.90
6174;DHT22;3120;48.796;9.796;2022-09-25T05:11:46;11.70;99.90
6174;DHT22;3120;48.796;9.796;2022-09-25T05:14:12;11.70;99.90
6174;DHT22;3120;48.796;9.796;2022-09-25T05:16:38;11.70;99.90
6174;DHT22;3120;48.796;9.796;2022-09-25T05:19:03;11.70;99.90
6174;DHT22;3120;48.796;9.796;2022-09-25T05:21:29;11.70;99.90
6174;DHT22;3120;48.796;9.796;2022-09-25T05:23:54;11.80;99.90
6174;DHT22;3120;48.796;9.796;2022-09-25T05:26:21;12.10;99.90
6174;DHT22;3120;48.796;9.796;2022-09-25T05:28:48;11.80;99.90
6174;DHT22;3120;48.796;9.796;2022-09-25T05:31:16;11.80;99.90
6174;DHT22;3120;48.796;9.796;2022-09-25T05:33:42;12.90;99.90
6174;DHT22;3120;48.796;9.796;2022-09-25T05:36:10;12.60;99.90
6174;DHT22;3120;48.796;9.796;2022-09-25T05:38:38;11.90;99.90
6174;DHT22;3120;48.796;9.796;2022-09-25T05:41:06;12.60;99.90
6174;DHT22;3120;48.796;9.796;2022-09-25T05:43:33;11.90;99.90
6174;DHT22;3120;48.796;9.796;2022-09-25T05:45:59;11.90;99.90
6174;DHT22;3120;48.796;9.796;2022-09-25T05:48:25;13.00;99.90
6174;DHT22;3120;48.796;9.796;2022-09-25T05:50:55;12.50;99.90
6174;DHT22;3120;48.796;9.796;2022-09-25T05:53:21;12.00;99.90
6174;DHT22;3120;48.796;9.796;2022-09-25T05:55:55;12.00;99.90
6174;DHT22;3120;48.796;9.796;2022-09-25T05:58:22;11.90;99.90
6174;DHT22;3120;48.796;9.796;2022-09-25T06:00:49;11.90;99.90
6174;DHT22;3120;48.796;9.796;2022-09-25T06:03:15;13.80;99.90
6174;DHT22;3120;48.796;9.796;2022-09-25T06:05:41;14.20;99.90
6174;DHT22;3120;48.796;9.796;2022-09-25T06:08:07;12.00;99.90
6174;DHT22;3120;48.796;9.796;2022-09-25T06:10:33;12.00;99.90
6174;DHT22;3120;48.796;9.796;2022-09-25T06:13:00;12.00;99.90
6174;DHT22;3120;48.796;9.796;2022-09-25T06:15:28;12.00;99.90
6174;DHT22;3120;48.796;9.796;2022-09-25T06:17:56;12.80;99.90
6174;DHT22;3120;48.796;9.796;2022-09-25T06:20:23;12.00;99.90
6174;DHT22;3120;48.796;9.796;2022-09-25T06:22:58;12.00;99.90
6174;DHT22;3120;48.796;9.796;2022-09-25T06:25:27;13.40;99.90
6174;DHT22;3120;48.796;9.796;2022-09-25T06:27:54;12.00;99.90
6174;DHT22;3120;48.796;9.796;2022-09-25T06:30:20;12.10;99.90
6174;DHT22;3120;48.796;9.796;2022-09-25T06:32:47;12.10;99.90
6174;DHT22;3120;48.796;9.796;2022-09-25T06:35:13;12.10;99.90
6174;DHT22;3120;48.796;9.796;2022-09-25T06:37:39;12.10;99.90
6174;DHT22;3120;48.796;9.796;2022-09-25T06:40:05;12.10;99.90
6174;DHT22;3120;48.796;9.796;2022-09-25T06:42:31;12.20;99.90
6174;DHT22;3120;48.796;9.796;2022-09-25T06:44:59;12.20;99.90
6174;DHT22;3120;48.796;9.796;2022-09-25T06:47:25;12.20;99.90
6174;DHT22;3120;48.796;9.796;2022-09-25T06:49:51;12.40;99.90
6174;DHT22;3120;48.796;9.796;2022-09-25T06:52:16;13.90;99.90
6174;DHT22;3120;48.796;9.796;2022-09-25T06:54:42;12.30;99.90
6174;DHT22;3120;48.796;9.796;2022-09-25T06:57:08;12.50;99.90
6174;DHT22;3120;48.796;9.796;2022-09-25T06:59:35;12.30;99.90
6174;DHT22;3120;48.796;9.796;2022-09-25T07:02:00;13.70;99.90
6174;DHT22;3120;48.796;9.796;2022-09-25T07:04:46;12.40;99.90
6174;DHT22;3120;48.796;9.796;2022-09-25T07:07:18;13.60;99.90
6174;DHT22;3120;48.796;9.796;2022-09-25T07:09:45;12.50;99.90
6174;DHT22;3120;48.796;9.796;2022-09-25T07:14:40;12.50;99.90
6174;DHT22;3120;48.796;9.796;2022-09-25T07:17:09;13.30;99.90
6174;DHT22;3120;48.796;9.796;2022-09-25T07:19:34;12.60;99.90
6174;DHT22;3120;48.796;9.796;2022-09-25T07:22:00;12.60;99.90
6174;DHT22;3120;48.796;9.796;2022-09-25T07:24:25;12.60;99.90
6174;DHT22;3120;48.796;9.796;2022-09-25T07:26:51;12.60;99.90
6174;DHT22;3120;48.796;9.796;2022-09-25T07:29:18;12.60;99.90
6174;DHT22;3120;48.796;9.796;2022-09-25T07:31:43;12.60;99.90
6174;DHT22;3120;48.796;9.796;2022-09-25T07:34:09;12.60;99.90
6174;DHT22;3120;48.796;9.796;2022-09-25T07:36:37;12.60;99.90
6174;DHT22;3120;48.796;9.796;2022-09-25T07:39:05;12.60;99.90
6174;DHT22;3120;48.796;9.796;2022-09-25T07:41:31;12.70;99.90
6174;DHT22;3120;48.796;9.796;2022-09-25T07:44:11;12.60;99.90
6174;DHT22;3120;48.796;9.796;2022-09-25T07:46:36;12.70;99.90
6174;DHT22;3120;48.796;9.796;2022-09-25T07:49:07;12.70;99.90
6174;DHT22;3120;48.796;9.796;2022-09-25T07:51:56;12.70;99.90
6174;DHT22;3120;48.796;9.796;2022-09-25T07:54:22;12.70;99.90
6174;DHT22;3120;48.796;9.796;2022-09-25T07:56:49;12.80;99.90
6174;DHT22;3120;48.796;9.796;2022-09-25T07:59:14;12.80;99.90
6174;DHT22;3120;48.796;9.796;2022-09-25T08:01:40;12.80;99.90
6174;DHT22;3120;48.796;9.796;2022-09-25T08:04:06;12.90;99.90
6174;DHT22;3120;48.796;9.796;2022-09-25T08:06:33;13.80;99.90
6174;DHT22;3120;48.796;9.796;2022-09-25T08:09:01;13.00;99.90
6174;DHT22;3120;48.796;9.796;2022-09-25T08:11:26;13.10;99.90
6174;DHT22;3120;48.796;9.796;2022-09-25T08:13:56;13.10;99.90
6174;DHT22;3120;48.796;9.796;2022-09-25T08:16:22;13.30;99.90
6174;DHT22;3120;48.796;9.796;2022-09-25T08:18:48;13.40;99.90
6174;DHT22;3120;48.796;9.796;2022-09-25T08:21:16;13.60;99.90
6174;DHT22;3120;48.796;9.796;2022-09-25T08:23:44;13.60;99.90
6174;DHT22;3120;48.796;9.796;2022-09-25T08:26:13;13.50;99.90
6174;DHT22;3120;48.796;9.796;2022-09-25T08:28:39;13.50;99.90
6174;DHT22;3120;48.796;9.796;2022-09-25T08:31:04;13.80;99.90
6174;DHT22;3120;48.796;9.796;2022-09-25T08:33:30;13.60;99.90
6174;DHT22;3120;48.796;9.796;2022-09-25T08:35:59;13.60;99.90
6174;DHT22;3120;48.796;9.796;2022-09-25T08:38:26;13.70;99.90
6174;DHT22;3120;48.796;9.796;2022-09-25T08:41:04;13.80;99.90
6174;DHT22;3120;48.796;9.796;2022-09-25T08:43:36;13.80;99.90
6174;DHT22;3120;48.796;9.796;2022-09-25T09:03:13;13.70;99.90
6174;DHT22;3120;48.796;9.796;2022-09-25T09:05:43;13.80;99.90
6174;DHT22;3120;48.796;9.796;2022-09-25T09:08:19;13.70;99.90
6174;DHT22;3120;48.796;9.796;2022-09-25T09:11:04;14.00;99.90
6174;DHT22;3120;48.796;9.796;2022-09-25T09:13:38;14.20;99.90
6174;DHT22;3120;48.796;9.796;2022-09-25T09:18:55;14.40;99.90
6174;DHT22;3120;48.796;9.796;2022-09-25T09:22:08;14.30;99.90
6174;DHT22;3120;48.796;9.796;2022-09-25T09:27:37;14.30;99.90
6174;DHT22;3120;48.796;9.796;2022-09-25T09:30:12;14.20;99.90
6174;DHT22;3120;48.796;9.796;2022-09-25T09:33:32;14.30;99.90
6174;DHT22;3120;48.796;9.796;2022-09-25T09:36:32;14.20;99.90
6174;DHT22;3120;48.796;9.796;2022-09-25T09:38:57;14.10;99.90
6174;DHT22;3120;48.796;9.796;2022-09-25T09:41:36;14.10;99.90
6174;DHT22;3120;48.796;9.796;2022-09-25T09:44:19;14.10;99.90
6174;DHT22;3120;48.796;9.796;2022-09-25T09:50:44;14.10;99.90
6174;DHT22;3120;48.796;9.796;2022-09-25T09:55:52;13.90;99.90
6174;DHT22;3120;48.796;9.796;2022-09-25T09:58:34;13.90;99.90
6174;DHT22;3120;48.796;9.796;2022-09-25T10:01:05;13.90;99.90
6174;DHT22;3120;48.796;9.796;2022-09-25T10:03:35;13.90;99.90
6174;DHT22;3120;48.796;9.796;2022-09-25T10:06:08;14.00;99.90
6174;DHT22;3120;48.796;9.796;2022-09-25T10:08:34;14.10;99.90
6174;DHT22;3120;48.796;9.796;2022-09-25T10:11:24;14.30;99.90
6174;DHT22;3120;48.796;9.796;2022-09-25T10:13:49;14.20;99.90
6174;DHT22;3120;48.796;9.796;2022-09-25T10:16:23;14.30;99.90
6174;DHT22;3120;48.796;9.796;2022-09-25T10:19:04;14.30;99.90
6174;DHT22;3120;48.796;9.796;2022-09-25T10:21:44;14.30;99.90
6174;DHT22;3120;48.796;9.796;2022-09-25T10:32:42;14.30;99.90
6174;DHT22;3120;48.796;9.796;2022-09-25T10:35:14;14.30;99.90
6174;DHT22;3120;48.796;9.796;2022-09-25T10:37:41;14.30;99.90
6174;DHT22;3120;48.796;9.796;2022-09-25T10:40:41;14.40;99.90
6174;DHT22;3120;48.796;9.796;2022-09-25T10:45:38;14.60;99.90
6174;DHT22;3120;48.796;9.796;2022-09-25T10:48:30;14.80;99.90
6174;DHT22;3120;48.796;9.796;2022-09-25T10:51:16;14.90;99.90
6174;DHT22;3120;48.796;9.796;2022-09-25T10:53:44;15.00;99.90
6174;DHT22;3120;48.796;9.796;2022-09-25T10:56:22;15.00;99.90
6174;DHT22;3120;48.796;9.796;2022-09-25T10:58:55;14.90;99.90
6174;DHT22;3120;48.796;9.796;2022-09-25T11:01:37;15.00;99.90
6174;DHT22;3120;48.796;9.796;2022-09-25T11:04:27;15.20;99.90
6174;DHT22;3120;48.796;9.796;2022-09-25T11:06:59;14.90;99.90
6174;DHT22;3120;48.796;9.796;2022-09-25T11:09:27;14.90;99.90
6174;DHT22;3120;48.796;9.796;2022-09-25T11:12:21;15.20;99.90
6174;DHT22;3120;48.796;9.796;2022-09-25T11:14:56;14.80;99.90
6174;DHT22;3120;48.796;9.796;2022-09-25T11:17:38;14.80;99.90
6174;DHT22;3120;48.796;9.796;2022-09-25T11:22:45;14.70;99.90
6174;DHT22;3120;48.796;9.796;2022-09-25T11:25:41;14.70;99.90
6174;DHT22;3120;48.796;9.796;2022-09-25T11:36:23;14.70;99.90
6174;DHT22;3120;48.796;9.796;2022-09-25T11:38:55;14.80;99.90
6174;DHT22;3120;48.796;9.796;2022-09-25T11:44:44;14.80;99.90
6174;DHT22;3120;48.796;9.796;2022-09-25T11:49:50;14.60;99.90
6174;DHT22;3120;48.796;9.796;2022-09-25T11:52:37;14.50;99.90
6174;DHT22;3120;48.796;9.796;2022-09-25T12:01:13;14.50;99.90
6174;DHT22;3120;48.796;9.796;2022-09-25T12:04:03;14.50;99.90
6174;DHT22;3120;48.796;9.796;2022-09-25T12:20:36;14.50;99.90
6174;DHT22;3120;48.796;9.796;2022-09-25T12:23:30;14.80;99.90
6174;DHT22;3120;48.796;9.796;2022-09-25T12:26:09;14.60;99.90
6174;DHT22;3120;48.796;9.796;2022-09-25T12:34:21;14.70;99.90
6174;DHT22;3120;48.796;9.796;2022-09-25T12:39:51;14.80;99.90
6174;DHT22;3120;48.796;9.796;2022-09-25T12:42:29;15.10;99.90
6174;DHT22;3120;48.796;9.796;2022-09-25T12:45:02;15.20;99.90
6174;DHT22;3120;48.796;9.796;2022-09-25T12:50:29;15.60;99.90
6174;DHT22;3120;48.796;9.796;2022-09-25T12:56:13;15.40;99.90
6174;DHT22;3120;48.796;9.796;2022-09-25T12:59:10;15.50;99.90
6174;DHT22;3120;48.796;9.796;2022-09-25T13:02:03;15.40;99.90
6174;DHT22;3120;48.796;9.796;2022-09-25T13:07:49;15.30;99.90
6174;DHT22;3120;48.796;9.796;2022-09-25T13:10:26;15.30;99.90
6174;DHT22;3120;48.796;9.796;2022-09-25T13:15:35;15.20;99.90
6174;DHT22;3120;48.796;9.796;2022-09-25T13:18:15;15.20;99.90
6174;DHT22;3120;48.796;9.796;2022-09-25T13:20:47;16.80;99.90
6174;DHT22;3120;48.796;9.796;2022-09-25T13:23:33;15.10;99.90
6174;DHT22;3120;48.796;9.796;2022-09-25T13:26:18;15.80;99.90
6174;DHT22;3120;48.796;9.796;2022-09-25T13:28:59;15.20;99.90
6174;DHT22;3120;48.796;9.796;2022-09-25T13:31:34;15.20;99.90
6174;DHT22;3120;48.796;9.796;2022-09-25T13:34:14;15.10;99.90
6174;DHT22;3120;48.796;9.796;2022-09-25T13:36:47;16.00;99.90
6174;DHT22;3120;48.796;9.796;2022-09-25T13:39:18;15.30;99.90
6174;DHT22;3120;48.796;9.796;2022-09-25T13:45:29;15.50;99.90
6174;DHT22;3120;48.796;9.796;2022-09-25T13:48:09;15.60;99.90
6174;DHT22;3120;48.796;9.796;2022-09-25T13:50:44;15.60;99.90
6174;DHT22;3120;48.796;9.796;2022-09-25T13:53:51;15.60;99.90
6174;DHT22;3120;48.796;9.796;2022-09-25T13:58:27;15.90;99.90
6174;DHT22;3120;48.796;9.796;2022-09-25T14:00:55;15.80;63.50
6174;DHT22;3120;48.796;9.796;2022-09-25T14:03:45;17.20;98.70
6174;DHT22;3120;48.796;9.796;2022-09-25T14:06:25;15.70;3.80
6174;DHT22;3120;48.796;9.796;2022-09-25T14:08:54;15.70;51.30
6174;DHT22;3120;48.796;9.796;2022-09-25T14:11:29;16.80;52.00
6174;DHT22;3120;48.796;9.796;2022-09-25T14:13:58;15.60;99.00
6174;DHT22;3120;48.796;9.796;2022-09-25T14:16:55;16.40;95.70
6174;DHT22;3120;48.796;9.796;2022-09-25T14:19:31;17.10;99.90
6174;DHT22;3120;48.796;9.796;2022-09-25T14:21:59;16.90;70.40
6174;DHT22;3120;48.796;9.796;2022-09-25T14:24:28;16.60;99.90
6174;DHT22;3120;48.796;9.796;2022-09-25T14:26:58;16.50;99.90
6174;DHT22;3120;48.796;9.796;2022-09-25T14:29:31;15.90;99.90
6174;DHT22;3120;48.796;9.796;2022-09-25T14:35:01;17.10;99.90
6174;DHT22;3120;48.796;9.796;2022-09-25T14:38:12;15.10;99.90
6174;DHT22;3120;48.796;9.796;2022-09-25T14:40:39;15.10;99.90
6174;DHT22;3120;48.796;9.796;2022-09-25T14:45:56;15.20;99.90
6174;DHT22;3120;48.796;9.796;2022-09-25T14:48:50;15.20;99.90
6174;DHT22;3120;48.796;9.796;2022-09-25T14:51:38;15.10;99.90
6174;DHT22;3120;48.796;9.796;2022-09-25T14:54:18;15.10;99.90
6174;DHT22;3120;48.796;9.796;2022-09-25T14:56:47;15.10;99.90
6174;DHT22;3120;48.796;9.796;2022-09-25T14:59:42;15.70;99.90
6174;DHT22;3120;48.796;9.796;2022-09-25T15:04:58;15.00;99.90
6174;DHT22;3120;48.796;9.796;2022-09-25T15:07:25;15.00;99.90
6174;DHT22;3120;48.796;9.796;2022-09-25T15:09:52;15.00;99.90
6174;DHT22;3120;48.796;9.796;2022-09-25T15:15:05;16.90;99.90
6174;DHT22;3120;48.796;9.796;2022-09-25T15:17:48;15.20;99.90
6174;DHT22;3120;48.796;9.796;2022-09-25T15:20:27;15.20;99.90
6174;DHT22;3120;48.796;9.796;2022-09-25T15:25:31;15.40;99.90
6174;DHT22;3120;48.796;9.796;2022-09-25T15:27:58;15.50;99.90
6174;DHT22;3120;48.796;9.796;2022-09-25T15:30:26;15.90;99.90
6174;DHT22;3120;48.796;9.796;2022-09-25T15:33:04;15.60;99.90
6174;DHT22;3120;48.796;9.796;2022-09-25T15:35:30;15.10;80.20
6174;DHT22;3120;48.796;9.796;2022-09-25T15:38:10;17.70;90.30
6174;DHT22;3120;48.796;9.796;2022-09-25T15:40:53;17.50;33.30
6174;DHT22;3120;48.796;9.796;2022-09-25T15:43:18;15.40;53.90
6174;DHT22;3120;48.796;9.796;2022-09-25T15:48:37;15.20;99.90
6174;DHT22;3120;48.796;9.796;2022-09-25T15:53:40;17.00;99.90
6174;DHT22;3120;48.796;9.796;2022-09-25T15:56:20;15.10;99.90
6174;DHT22;3120;48.796;9.796;2022-09-25T15:58:50;15.20;99.90
6174;DHT22;3120;48.796;9.796;2022-09-25T16:01:20;15.00;99.90
6174;DHT22;3120;48.796;9.796;2022-09-25T16:04:08;16.20;99.90
6174;DHT22;3120;48.796;9.796;2022-09-25T16:06:53;15.00;99.90
6174;DHT22;3120;48.796;9.796;2022-09-25T16:09:34;15.00;99.90
6174;DHT22;3120;48.796;9.796;2022-09-25T16:14:51;15.00;99.90
6174;DHT22;3120;48.796;9.796;2022-09-25T16:17:36;15.00;99.90
6174;DHT22;3120;48.796;9.796;2022-09-25T16:22:51;14.90;99.90
6174;DHT22;3120;48.796;9.796;2022-09-25T16:25:26;14.80;99.90
6174;DHT22;3120;48.796;9.796;2022-09-25T16:28:05;16.50;99.90
6174;DHT22;3120;48.796;9.796;2022-09-25T16:30:31;14.60;99.90
6174;DHT22;3120;48.796;9.796;2022-09-25T16:33:04;14.60;99.90
6174;DHT22;3120;48.796;9.796;2022-09-25T16:35:36;14.70;99.90
6174;DHT22;3120;48.796;9.796;2022-09-25T16:38:02;14.50;99.90
6174;DHT22;3120;48.796;9.796;2022-09-25T16:40:29;14.60;99.90
6174;DHT22;3120;48.796;9.796;2022-09-25T16:42:59;14.40;99.90
6174;DHT22;3120;48.796;9.796;2022-09-25T16:45:28;15.70;99.90
6174;DHT22;3120;48.796;9.796;2022-09-25T16:48:25;14.30;99.90
6174;DHT22;3120;48.796;9.796;2022-09-25T16:50:46;14.20;99.90
6174;DHT22;3120;48.796;9.796;2022-09-25T16:53:13;14.20;99.90
6174;DHT22;3120;48.796;9.796;2022-09-25T16:55:46;15.00;99.90
6174;DHT22;3120;48.796;9.796;2022-09-25T16:58:13;15.60;99.90
6174;DHT22;3120;48.796;9.796;2022-09-25T17:00:39;14.30;99.90
6174;DHT22;3120;48.796;9.796;2022-09-25T17:03:05;14.00;99.90
6174;DHT22;3120;48.796;9.796;2022-09-25T17:05:32;16.60;99.90
6174;DHT22;3120;48.796;9.796;2022-09-25T17:07:59;13.90;99.90
6174;DHT22;3120;48.796;9.796;2022-09-25T17:10:28;13.80;99.90
6174;DHT22;3120;48.796;9.796;2022-09-25T17:12:59;13.80;99.90
6174;DHT22;3120;48.796;9.796;2022-09-25T17:15:35;14.30;99.90
6174;DHT22;3120;48.796;9.796;2022-09-25T17:18:01;13.70;99.90
6174;DHT22;3120;48.796;9.796;2022-09-25T17:20:29;13.60;99.90
6174;DHT22;3120;48.796;9.796;2022-09-25T17:22:59;13.60;99.90
6174;DHT22;3120;48.796;9.796;2022-09-25T17:25:47;13.60;99.90
6174;DHT22;3120;48.796;9.796;2022-09-25T17:28:13;13.60;99.90
6174;DHT22;3120;48.796;9.796;2022-09-25T17:30:40;13.60;99.90
6174;DHT22;3120;48.796;9.796;2022-09-25T17:33:15;13.60;99.90
6174;DHT22;3120;48.796;9.796;2022-09-25T17:38:16;13.60;99.90
6174;DHT22;3120;48.796;9.796;2022-09-25T17:40:45;13.60;99.90
6174;DHT22;3120;48.796;9.796;2022-09-25T17:43:13;13.50;99.90
6174;DHT22;3120;48.796;9.796;2022-09-25T17:48:08;13.40;99.90
6174;DHT22;3120;48.796;9.796;2022-09-25T17:50:34;14.70;99.90
6174;DHT22;3120;48.796;9.796;2022-09-25T17:53:26;13.30;99.90
6174;DHT22;3120;48.796;9.796;2022-09-25T17:55:53;13.30;99.90
6174;DHT22;3120;48.796;9.796;2022-09-25T17:58:19;13.20;99.90
6174;DHT22;3120;48.796;9.796;2022-09-25T18:00:47;13.20;99.90
6174;DHT22;3120;48.796;9.796;2022-09-25T18:03:14;15.00;99.90
6174;DHT22;3120;48.796;9.796;2022-09-25T18:05:41;15.40;99.90
6174;DHT22;3120;48.796;9.796;2022-09-25T18:08:07;14.10;99.90
6174;DHT22;3120;48.796;9.796;2022-09-25T18:10:33;13.20;99.90
6174;DHT22;3120;48.796;9.796;2022-09-25T18:13:02;14.80;99.90
6174;DHT22;3120;48.796;9.796;2022-09-25T18:15:29;13.00;99.90
6174;DHT22;3120;48.796;9.796;2022-09-25T18:17:55;13.00;99.90
6174;DHT22;3120;48.796;9.796;2022-09-25T18:20:25;12.90;99.90
6174;DHT22;3120;48.796;9.796;2022-09-25T18:23:09;12.90;99.90
6174;DHT22;3120;48.796;9.796;2022-09-25T18:25:37;13.10;99.90
6174;DHT22;3120;48.796;9.796;2022-09-25T18:28:04;14.00;99.90
6174;DHT22;3120;48.796;9.796;2022-09-25T18:30:31;12.90;99.90
6174;DHT22;3120;48.796;9.796;2022-09-25T18:32:56;12.90;99.90
6174;DHT22;3120;48.796;9.796;2022-09-25T18:35:22;12.80;99.90
6174;DHT22;3120;48.796;9.796;2022-09-25T18:37:48;12.80;99.90
6174;DHT22;3120;48.796;9.796;2022-09-25T18:40:16;14.10;99.90
6174;DHT22;3120;48.796;9.796;2022-09-25T18:42:42;12.90;99.90
6174;DHT22;3120;48.796;9.796;2022-09-25T18:45:10;14.30;99.90
6174;DHT22;3120;48.796;9.796;2022-09-25T18:47:38;12.80;99.90
6174;DHT22;3120;48.796;9.796;2022-09-25T18:50:04;12.80;99.90
6174;DHT22;3120;48.796;9.796;2022-09-25T18:52:33;12.80;99.90
6174;DHT22;3120;48.796;9.796;2022-09-25T18:54:59;12.80;99.90
6174;DHT22;3120;48.796;9.796;2022-09-25T18:57:25;12.80;99.90
6174;DHT22;3120;48.796;9.796;2022-09-25T18:59:54;12.80;99.90
6174;DHT22;3120;48.796;9.796;2022-09-25T19:02:22;14.00;99.90
6174;DHT22;3120;48.796;9.796;2022-09-25T19:04:50;14.70;99.90
6174;DHT22;3120;48.796;9.796;2022-09-25T19:07:16;14.40;99.90
6174;DHT22;3120;48.796;9.796;2022-09-25T19:09:43;12.80;99.90
6174;DHT22;3120;48.796;9.796;2022-09-25T19:12:09;15.30;99.90
6174;DHT22;3120;48.796;9.796;2022-09-25T19:14:42;12.90;99.90
6174;DHT22;3120;48.796;9.796;2022-09-25T19:17:09;12.90;99.90